Time;durP1;ratioP1;P1;durP2;ratioP2;P2;SDS_P1;SDS_P2;PMS_P1;PMS_P2;Temp;Humidity;BMP_temperature;BMP_pressure;BME280_temperature;BME280_humidity;BME280_pressure;Samples;Min_cycle;Max_cycle;Signal;HPM_P1;HPM_P2
2023/01/27 00:01:18;;;;;;;23.58;10.52;;;;;;;0.71;100.00;101673.16;5018550;28;20207;-72
2023/01/27 00:03:49;;;;;;;21.90;10.15;;;;;;;0.75;100.00;101685.25;5021393;28;20205;-72
2023/01/27 00:06:23;;;;;;;27.23;11.10;;;;;;;0.54;100.00;101682.44;5033147;28;20779;-70
2023/01/27 00:08:57;;;;;;;17.60;9.27;;;;;;;0.42;100.00;101684.25;5010850;28;20209;-71
2023/01/27 00:14:15;;;;;;;19.20;9.75;;;;;;;0.60;100.00;101691.75;5017052;28;20688;-71
2023/01/27 00:16:47;;;;;;;23.98;9.98;;;;;;;0.84;100.00;101689.84;5030539;28;20765;-71
2023/01/27 00:19:22;;;;;;;24.75;11.20;;;;;;;1.09;100.00;101686.97;5032218;28;20730;-72
2023/01/27 00:24:48;;;;;;;25.67;10.45;;;;;;;0.89;100.00;101682.34;5004910;28;20228;-70
2023/01/27 00:27:22;;;;;;;23.98;8.82;;;;;;;0.78;100.00;101674.34;5005698;28;20256;-71
2023/01/27 00:29:53;;;;;;;24.60;11.45;;;;;;;0.77;100.00;101681.53;5016356;28;20198;-72
2023/01/27 00:35:19;;;;;;;18.35;11.30;;;;;;;0.73;100.00;101676.50;5016118;28;20201;-72
2023/01/27 00:37:50;;;;;;;18.85;9.43;;;;;;;0.70;100.00;101679.44;5003467;28;20193;-71
2023/01/27 00:40:27;;;;;;;21.02;9.45;;;;;;;0.64;100.00;101682.56;5009586;28;20890;-72
2023/01/27 00:42:59;;;;;;;21.70;10.10;;;;;;;0.51;100.00;101682.69;5008569;28;20193;-72
2023/01/27 00:48:19;;;;;;;16.27;7.88;;;;;;;0.77;100.00;101692.19;5032109;28;20284;-72
2023/01/27 00:50:51;;;;;;;22.17;9.98;;;;;;;0.65;100.00;101690.44;4999484;28;20201;-71
2023/01/27 00:53:23;;;;;;;18.95;8.95;;;;;;;0.56;100.00;101692.97;5036029;28;20232;-72
2023/01/27 00:55:58;;;;;;;20.85;11.07;;;;;;;0.32;100.00;101693.91;5024412;28;20233;-72
2023/01/27 00:58:32;;;;;;;25.52;11.27;;;;;;;0.27;100.00;101696.06;5037964;28;20581;-71
2023/01/27 01:01:14;;;;;;;19.92;10.13;;;;;;;0.35;100.00;101698.13;5029522;28;20247;-70
2023/01/27 01:03:50;;;;;;;21.83;10.65;;;;;;;0.51;100.00;101696.00;5022238;28;20195;-72
2023/01/27 01:06:23;;;;;;;20.08;8.90;;;;;;;0.67;100.00;101701.00;5027610;28;20227;-70
2023/01/27 01:08:56;;;;;;;23.92;9.95;;;;;;;0.64;100.00;101698.53;5026601;28;20595;-71
2023/01/27 01:11:38;;;;;;;20.05;10.63;;;;;;;0.61;100.00;101704.97;5015046;28;20213;-73
2023/01/27 01:14:11;;;;;;;25.10;9.82;;;;;;;0.61;100.00;101699.66;5021791;28;20206;-72
2023/01/27 01:16:42;;;;;;;24.70;11.82;;;;;;;0.63;100.00;101691.56;5016192;28;20240;-70
2023/01/27 01:19:16;;;;;;;25.00;10.30;;;;;;;0.48;100.00;101698.91;5019601;28;20189;-70
2023/01/27 01:21:47;;;;;;;18.08;8.95;;;;;;;0.47;100.00;101697.19;5031467;28;20200;-71
2023/01/27 01:24:20;;;;;;;26.27;10.85;;;;;;;0.43;100.00;101707.25;5011398;28;20205;-72
2023/01/27 01:26:59;;;;;;;22.17;10.20;;;;;;;0.40;100.00;101706.59;5036666;28;20228;-70
2023/01/27 01:29:33;;;;;;;21.67;7.72;;;;;;;0.27;100.00;101706.72;5024224;28;20210;-70
2023/01/27 01:32:09;;;;;;;24.20;11.18;;;;;;;0.34;100.00;101707.91;5022089;28;20197;-71
2023/01/27 01:34:49;;;;;;;24.48;12.70;;;;;;;0.35;100.00;101714.09;5027806;28;20225;-70
2023/01/27 01:37:20;;;;;;;17.88;9.35;;;;;;;0.29;100.00;101704.75;5002881;28;20707;-71
2023/01/27 01:39:51;;;;;;;24.30;10.23;;;;;;;0.33;100.00;101708.91;5006836;28;20205;-71
2023/01/27 01:42:28;;;;;;;20.92;9.38;;;;;;;0.29;100.00;101718.06;5023917;28;20276;-72
2023/01/27 01:45:43;;;;;;;18.73;9.40;;;;;;;0.29;100.00;101715.41;5024820;28;20297;-71
2023/01/27 01:48:17;;;;;;;20.50;9.65;;;;;;;0.33;100.00;101711.56;4955319;29;20199;-72
2023/01/27 01:51:02;;;;;;;20.25;10.07;;;;;;;0.24;100.00;101716.75;5002976;28;20684;-71
2023/01/27 01:53:41;;;;;;;20.92;9.93;;;;;;;0.38;100.00;101720.06;5026337;28;20278;-70
2023/01/27 01:56:16;;;;;;;25.77;10.88;;;;;;;0.44;100.00;101716.91;5030270;28;20235;-71
2023/01/27 01:58:51;;;;;;;31.15;10.05;;;;;;;0.40;100.00;101726.09;5035800;28;20184;-71
2023/01/27 02:01:26;;;;;;;26.45;9.70;;;;;;;0.42;100.00;101726.84;5021711;28;20221;-70
2023/01/27 02:04:02;;;;;;;24.95;10.27;;;;;;;0.47;100.00;101728.31;5003721;28;20206;-70
2023/01/27 02:06:41;;;;;;;25.60;9.20;;;;;;;0.55;100.00;101712.59;5033770;28;20695;-71
2023/01/27 02:09:15;;;;;;;15.95;9.35;;;;;;;0.42;100.00;101721.53;5018554;28;20212;-71
2023/01/27 02:11:51;;;;;;;25.33;11.82;;;;;;;0.67;100.00;101717.84;5014683;28;20205;-70
2023/01/27 02:14:23;;;;;;;24.95;10.98;;;;;;;0.80;100.00;101715.91;5015332;28;20292;-70
2023/01/27 02:16:56;;;;;;;22.70;9.95;;;;;;;0.67;100.00;101716.97;5037452;28;20263;-71
2023/01/27 02:19:56;;;;;;;19.20;10.73;;;;;;;0.49;100.00;101715.72;5033030;28;20204;-70
2023/01/27 02:22:39;;;;;;;17.55;9.82;;;;;;;0.60;100.00;101711.25;5013939;28;20201;-71
2023/01/27 02:25:20;;;;;;;20.17;9.48;;;;;;;0.55;100.00;101715.25;5025859;28;20207;-70
2023/01/27 02:27:55;;;;;;;16.63;7.38;;;;;;;0.76;100.00;101708.28;5032009;28;20224;-70
2023/01/27 02:30:27;;;;;;;20.60;8.70;;;;;;;0.89;100.00;101709.00;5046879;28;20218;-71
2023/01/27 02:33:01;;;;;;;15.35;9.30;;;;;;;0.76;100.00;101714.44;5035729;28;20664;-71
2023/01/27 02:35:38;;;;;;;15.45;7.68;;;;;;;0.71;100.00;101711.28;5028095;28;20229;-71
2023/01/27 02:38:09;;;;;;;16.63;8.85;;;;;;;0.72;100.00;101713.00;5014493;28;20202;-71
2023/01/27 02:40:41;;;;;;;16.00;8.73;;;;;;;0.74;100.00;101715.53;5033509;28;20546;-72
2023/01/27 02:43:19;;;;;;;14.00;7.45;;;;;;;0.90;100.00;101716.03;5012578;28;20198;-69
2023/01/27 02:45:49;;;;;;;14.23;7.95;;;;;;;0.75;100.00;101715.41;5019751;28;20742;-71
2023/01/27 02:48:22;;;;;;;23.17;9.55;;;;;;;0.89;100.00;101719.66;5017921;28;20251;-70
2023/01/27 02:50:54;;;;;;;16.85;8.60;;;;;;;0.81;100.00;101722.09;4992346;28;20206;-71
2023/01/27 02:53:25;;;;;;;16.77;8.68;;;;;;;0.66;100.00;101726.78;5023313;28;20190;-71
2023/01/27 02:55:57;;;;;;;14.45;7.50;;;;;;;0.67;100.00;101732.97;5018177;28;20263;-72
2023/01/27 02:58:29;;;;;;;18.27;9.38;;;;;;;0.75;100.00;101727.88;5011449;28;20702;-71
2023/01/27 03:01:12;;;;;;;18.88;9.07;;;;;;;0.72;100.00;101741.44;5031518;28;20204;-71
2023/01/27 03:03:45;;;;;;;18.83;8.75;;;;;;;0.57;100.00;101735.47;5011817;28;20206;-70
2023/01/27 03:06:20;;;;;;;27.95;9.95;;;;;;;0.61;100.00;101736.94;5024295;28;20221;-72
2023/01/27 03:09:34;;;;;;;22.15;8.65;;;;;;;0.70;100.00;101743.38;5020811;28;20675;-71
2023/01/27 03:12:24;;;;;;;17.70;8.38;;;;;;;0.61;100.00;101742.28;5008022;28;20212;-71
2023/01/27 03:20:32;;;;;;;13.48;6.18;;;;;;;0.81;100.00;101730.06;5013230;28;20224;-71
2023/01/27 03:23:02;;;;;;;23.88;8.90;;;;;;;0.76;100.00;101727.78;5012874;28;20754;-70
2023/01/27 03:25:33;;;;;;;18.98;7.85;;;;;;;0.70;100.00;101730.06;5014482;28;20214;-71
2023/01/27 03:28:05;;;;;;;13.15;7.65;;;;;;;0.81;100.00;101727.41;5016332;28;20202;-70
2023/01/27 03:30:47;;;;;;;17.90;7.57;;;;;;;0.78;100.00;101732.97;5020794;28;20214;-71
2023/01/27 03:33:26;;;;;;;14.02;7.82;;;;;;;0.80;100.00;101737.22;5029033;28;20701;-71
2023/01/27 03:47:24;;;;;;;17.50;8.30;;;;;;;0.94;100.00;101738.81;5008148;28;20308;-71
2023/01/27 03:49:54;;;;;;;18.10;8.13;;;;;;;0.91;100.00;101743.53;5017559;28;20307;-71
2023/01/27 03:52:26;;;;;;;19.20;6.97;;;;;;;0.99;100.00;101744.63;5039100;28;20269;-69
2023/01/27 03:54:58;;;;;;;17.27;7.45;;;;;;;0.98;100.00;101740.25;5034832;28;20202;-71
2023/01/27 03:57:29;;;;;;;13.43;7.22;;;;;;;1.01;100.00;101739.19;5034840;28;20209;-72
2023/01/27 04:00:02;;;;;;;18.50;7.55;;;;;;;0.88;100.00;101734.78;5008772;28;20614;-72
2023/01/27 04:08:23;;;;;;;16.13;7.75;;;;;;;0.70;100.00;101736.22;5024676;28;20200;-71
2023/01/27 04:13:38;;;;;;;19.80;8.88;;;;;;;0.79;100.00;101734.66;5006642;28;20193;-70
2023/01/27 04:16:09;;;;;;;14.75;7.15;;;;;;;0.87;100.00;101726.94;5006352;28;20222;-71
2023/01/27 04:18:45;;;;;;;18.10;7.95;;;;;;;0.79;100.00;101729.34;4996032;28;20201;-71
2023/01/27 04:21:21;;;;;;;16.45;7.03;;;;;;;0.88;100.00;101729.47;5030371;28;20284;-70
2023/01/27 04:23:51;;;;;;;11.98;5.95;;;;;;;0.91;100.00;101730.22;5008654;28;20293;-69
2023/01/27 04:26:32;;;;;;;15.50;6.65;;;;;;;0.99;100.00;101736.63;5018772;28;20225;-70
2023/01/27 04:29:07;;;;;;;11.15;6.68;;;;;;;1.14;100.00;101735.44;5032828;28;20174;-70
2023/01/27 04:31:39;;;;;;;15.50;5.90;;;;;;;1.03;100.00;101743.41;4997214;28;20221;-70
2023/01/27 04:34:17;;;;;;;9.38;4.75;;;;;;;1.07;100.00;101742.19;5013066;28;20208;-69
2023/01/27 04:36:48;;;;;;;11.48;5.68;;;;;;;1.17;100.00;101735.19;5017315;28;20229;-70
2023/01/27 04:39:19;;;;;;;15.90;6.47;;;;;;;1.18;100.00;101736.88;5003859;28;20205;-71
2023/01/27 04:41:53;;;;;;;14.20;6.72;;;;;;;1.06;100.00;101731.69;5013127;28;20404;-70
2023/01/27 04:44:23;;;;;;;13.35;5.68;;;;;;;1.21;100.00;101741.97;5000162;28;20272;-70
2023/01/27 04:46:57;;;;;;;12.07;6.18;;;;;;;1.12;100.00;101748.03;5005453;28;20228;-70
2023/01/27 04:49:30;;;;;;;11.20;5.45;;;;;;;1.53;100.00;101741.22;5004412;28;20212;-71
2023/01/27 04:52:02;;;;;;;9.23;5.20;;;;;;;1.37;100.00;101746.09;5015980;28;20244;-71
2023/01/27 04:54:34;;;;;;;15.90;6.60;;;;;;;1.63;100.00;101742.19;5010177;28;20209;-70
2023/01/27 04:57:11;;;;;;;12.68;6.15;;;;;;;1.70;100.00;101743.38;5025569;28;20225;-71
2023/01/27 04:59:42;;;;;;;15.43;7.40;;;;;;;1.68;100.00;101746.19;5028868;28;20282;-71
2023/01/27 05:02:14;;;;;;;11.05;6.80;;;;;;;1.86;100.00;101745.66;5017237;28;20209;-70
2023/01/27 05:04:49;;;;;;;13.02;5.88;;;;;;;1.49;100.00;101755.78;5027433;28;20203;-72
2023/01/27 05:07:20;;;;;;;9.43;5.70;;;;;;;1.40;100.00;101761.84;5022531;28;20625;-71
2023/01/27 05:09:51;;;;;;;13.13;6.07;;;;;;;1.44;100.00;101764.16;5034755;28;20246;-71
2023/01/27 05:12:22;;;;;;;11.48;6.43;;;;;;;1.55;100.00;101771.31;5017996;28;20201;-72
2023/01/27 05:14:53;;;;;;;11.40;6.50;;;;;;;1.38;100.00;101769.13;5015118;28;20255;-71
2023/01/27 05:17:28;;;;;;;11.85;6.60;;;;;;;1.54;100.00;101772.28;5028507;28;20589;-71
2023/01/27 05:20:00;;;;;;;11.18;6.68;;;;;;;1.27;100.00;101762.81;5015187;28;20197;-71
2023/01/27 05:22:41;;;;;;;16.13;7.32;;;;;;;1.37;100.00;101778.09;5022276;28;20570;-70
2023/01/27 05:25:11;;;;;;;14.60;7.00;;;;;;;1.45;100.00;101779.19;5025066;28;20695;-70
2023/01/27 05:27:45;;;;;;;18.35;6.95;;;;;;;1.37;100.00;101788.75;5016157;28;20231;-71
2023/01/27 05:30:17;;;;;;;15.27;7.85;;;;;;;1.38;100.00;101787.78;5030667;28;20197;-70
2023/01/27 05:32:51;;;;;;;13.55;6.35;;;;;;;1.60;100.00;101785.94;5002570;28;20735;-71
2023/01/27 05:35:25;;;;;;;11.05;5.35;;;;;;;1.62;100.00;101785.84;5032892;28;20196;-70
2023/01/27 05:38:03;;;;;;;11.30;6.47;;;;;;;1.55;100.00;101787.31;5027840;28;20208;-69
2023/01/27 05:40:34;;;;;;;11.63;5.43;;;;;;;1.33;100.00;101787.31;5015743;28;20697;-71
2023/01/27 05:43:07;;;;;;;25.30;8.20;;;;;;;1.36;100.00;101795.03;5018439;28;20204;-71
2023/01/27 05:45:39;;;;;;;15.15;7.38;;;;;;;1.38;100.00;101793.13;5030557;28;20228;-71
2023/01/27 05:48:11;;;;;;;9.18;5.85;;;;;;;1.48;100.00;101796.75;5018339;28;20224;-70
2023/01/27 05:50:42;;;;;;;12.05;6.40;;;;;;;1.44;100.00;101795.31;5023862;28;20209;-72
2023/01/27 05:53:17;;;;;;;13.85;6.70;;;;;;;1.50;100.00;101794.84;5020049;28;20196;-72
2023/01/27 05:55:49;;;;;;;13.30;7.00;;;;;;;1.43;100.00;101805.13;5035364;28;20225;-71
2023/01/27 05:58:24;;;;;;;13.80;6.80;;;;;;;1.57;100.00;101806.69;5024103;28;20186;-73
2023/01/27 06:00:55;;;;;;;19.88;7.80;;;;;;;1.57;100.00;101809.38;5023513;28;20190;-71
2023/01/27 06:03:28;;;;;;;16.08;7.43;;;;;;;1.63;100.00;101806.22;5005949;28;20202;-71
2023/01/27 06:06:02;;;;;;;12.45;6.88;;;;;;;1.47;100.00;101800.41;5025662;28;20221;-72
2023/01/27 06:08:36;;;;;;;14.85;6.82;;;;;;;1.64;100.00;101797.25;5005364;28;20692;-70
2023/01/27 06:11:07;;;;;;;12.90;6.85;;;;;;;1.60;100.00;101799.28;5025852;28;20205;-71
2023/01/27 06:13:39;;;;;;;9.88;5.45;;;;;;;1.52;100.00;101798.22;5016238;28;20561;-70
2023/01/27 06:16:11;;;;;;;15.48;7.22;;;;;;;1.54;100.00;101801.63;5000105;28;20283;-71
2023/01/27 06:18:42;;;;;;;12.80;5.82;;;;;;;1.55;100.00;101798.81;5026351;28;20718;-71
2023/01/27 06:21:15;;;;;;;12.13;6.65;;;;;;;1.40;100.00;101797.38;5009618;28;20220;-71
2023/01/27 06:23:47;;;;;;;11.50;5.53;;;;;;;1.36;100.00;101800.38;4998451;28;20289;-71
2023/01/27 06:26:19;;;;;;;9.20;5.00;;;;;;;1.38;100.00;101795.78;5026496;28;20224;-70
2023/01/27 06:28:51;;;;;;;8.40;4.45;;;;;;;1.55;100.00;101793.47;5002227;28;20197;-70
2023/01/27 06:31:23;;;;;;;12.00;6.13;;;;;;;1.38;100.00;101801.13;5020499;28;20233;-71
2023/01/27 06:33:53;;;;;;;14.27;7.35;;;;;;;1.37;100.00;101804.75;5017925;28;20599;-71
2023/01/27 06:36:26;;;;;;;10.90;5.78;;;;;;;1.53;100.00;101806.09;5021435;28;20221;-69
2023/01/27 06:38:58;;;;;;;15.32;6.65;;;;;;;1.51;100.00;101801.84;4989972;28;20205;-71
2023/01/27 06:41:30;;;;;;;13.45;5.80;;;;;;;1.56;100.00;101807.66;5035382;28;20186;-70
2023/01/27 06:44:04;;;;;;;9.05;5.00;;;;;;;1.49;100.00;101812.66;5006827;28;20756;-70
2023/01/27 06:46:36;;;;;;;11.35;5.25;;;;;;;1.44;100.00;101821.97;5003162;28;20230;-70
2023/01/27 06:49:06;;;;;;;13.85;6.25;;;;;;;1.47;100.00;101816.41;5014396;28;20245;-71
2023/01/27 06:51:40;;;;;;;9.07;5.50;;;;;;;1.33;100.00;101816.63;5040242;28;20205;-70
2023/01/27 06:54:12;;;;;;;12.00;6.10;;;;;;;1.27;100.00;101813.47;5048567;28;20223;-71
2023/01/27 06:56:43;;;;;;;13.77;6.85;;;;;;;1.25;100.00;101807.44;5034564;28;20225;-71
2023/01/27 06:59:17;;;;;;;15.20;7.30;;;;;;;1.17;100.00;101823.16;5035104;28;20267;-72
2023/01/27 07:01:49;;;;;;;10.63;6.47;;;;;;;1.25;100.00;101823.44;5018210;28;20706;-71
2023/01/27 07:04:21;;;;;;;13.52;6.18;;;;;;;1.25;100.00;101827.91;5029580;28;20702;-70
2023/01/27 07:06:54;;;;;;;13.55;6.68;;;;;;;1.29;100.00;101824.88;5005341;28;20233;-70
2023/01/27 07:09:24;;;;;;;13.10;7.63;;;;;;;1.38;100.00;101833.97;5006365;28;20622;-69
2023/01/27 07:11:55;;;;;;;16.20;7.30;;;;;;;1.44;100.00;101828.16;5007205;28;20236;-72
2023/01/27 07:14:25;;;;;;;17.58;7.95;;;;;;;1.41;100.00;101827.53;5028170;28;20209;-71
2023/01/27 07:16:55;;;;;;;12.55;6.82;;;;;;;1.46;100.00;101830.69;5017706;28;20743;-71
2023/01/27 07:19:27;;;;;;;18.33;9.30;;;;;;;1.49;100.00;101835.81;5016849;28;20239;-72
2023/01/27 07:22:01;;;;;;;20.58;8.95;;;;;;;1.46;100.00;101839.56;5003934;28;20190;-71
2023/01/27 07:24:32;;;;;;;17.85;8.90;;;;;;;1.45;100.00;101831.69;5020976;28;20207;-70
2023/01/27 07:27:01;;;;;;;20.17;15.68;;;;;;;1.40;100.00;101847.22;5050324;28;20209;-73
2023/01/27 07:29:32;;;;;;;76.22;58.65;;;;;;;1.39;100.00;101845.50;5045612;28;20261;-71
2023/01/27 07:32:03;;;;;;;41.08;34.10;;;;;;;1.51;100.00;101847.19;5032737;28;20209;-73
2023/01/27 07:34:33;;;;;;;52.15;46.85;;;;;;;1.48;100.00;101850.13;5044314;28;20197;-71
2023/01/27 07:37:10;;;;;;;30.70;21.90;;;;;;;1.51;100.00;101845.38;5052636;28;20224;-71
2023/01/27 07:39:41;;;;;;;15.48;10.50;;;;;;;1.49;100.00;101851.81;5055312;28;20197;-74
2023/01/27 07:42:13;;;;;;;20.33;14.25;;;;;;;1.55;100.00;101846.00;5035856;28;20208;-70
2023/01/27 07:44:43;;;;;;;27.52;16.30;;;;;;;1.59;100.00;101852.78;5029027;28;20205;-71
2023/01/27 07:47:14;;;;;;;15.63;9.40;;;;;;;1.70;100.00;101850.09;5035300;28;20244;-72
2023/01/27 07:49:47;;;;;;;12.48;9.23;;;;;;;1.73;100.00;101860.56;5048367;28;20197;-72
2023/01/27 07:52:21;;;;;;;18.60;13.60;;;;;;;1.81;100.00;101854.59;5047013;28;20221;-73
2023/01/27 07:54:53;;;;;;;20.80;10.35;;;;;;;1.77;100.00;101866.50;5008043;28;20212;-72
2023/01/27 07:57:29;;;;;;;17.35;9.52;;;;;;;1.82;100.00;101865.16;5014512;28;20242;-72
2023/01/27 08:00:00;;;;;;;17.40;10.35;;;;;;;1.88;100.00;101859.34;5034799;28;20212;-73
2023/01/27 08:02:44;;;;;;;18.65;9.95;;;;;;;1.93;100.00;101851.81;5022786;28;20197;-71
2023/01/27 08:05:16;;;;;;;19.40;8.90;;;;;;;2.01;100.00;101865.38;5024973;28;20555;-71
2023/01/27 08:07:48;;;;;;;13.75;8.88;;;;;;;2.08;100.00;101863.06;5025952;28;20189;-71
2023/01/27 08:10:21;;;;;;;18.23;12.73;;;;;;;2.10;100.00;101864.63;5024860;28;20204;-72
2023/01/27 08:12:53;;;;;;;14.55;9.52;;;;;;;2.15;100.00;101862.44;5040944;28;20221;-71
2023/01/27 08:15:26;;;;;;;15.65;9.65;;;;;;;2.24;100.00;101870.66;5001394;28;20237;-73
2023/01/27 08:18:04;;;;;;;10.70;8.07;;;;;;;2.25;100.00;101867.03;5017788;28;20197;-73
2023/01/27 08:20:36;;;;;;;13.50;7.53;;;;;;;2.28;100.00;101872.13;5017893;28;20198;-71
2023/01/27 08:23:12;;;;;;;18.88;8.15;;;;;;;2.39;100.00;101866.75;5021435;28;20243;-72
2023/01/27 08:25:53;;;;;;;12.85;7.80;;;;;;;2.39;100.00;101872.09;5013463;28;20240;-71
2023/01/27 08:28:27;;;;;;;13.35;7.15;;;;;;;2.44;100.00;101868.06;5039857;28;20272;-70
2023/01/27 08:31:07;;;;;;;13.70;7.80;;;;;;;2.50;100.00;101866.72;5004690;28;20568;-71
2023/01/27 08:33:39;;;;;;;12.57;7.43;;;;;;;2.62;100.00;101876.38;5018299;28;20699;-72
2023/01/27 08:36:17;;;;;;;11.20;5.85;;;;;;;2.57;100.00;101878.59;5015133;28;20229;-70
2023/01/27 08:38:55;;;;;;;12.52;6.13;;;;;;;2.60;100.00;101868.53;5017821;28;20219;-70
2023/01/27 08:41:29;;;;;;;13.30;8.85;;;;;;;2.72;100.00;101876.47;5032911;28;20675;-72
2023/01/27 08:44:04;;;;;;;14.52;6.18;;;;;;;2.76;100.00;101884.09;5017476;28;20205;-70
2023/01/27 08:46:36;;;;;;;11.52;5.93;;;;;;;2.78;100.00;101881.31;5047445;28;20239;-72
2023/01/27 08:49:09;;;;;;;9.07;6.45;;;;;;;2.93;100.00;101885.38;5046115;28;20201;-70
2023/01/27 08:51:43;;;;;;;9.10;5.68;;;;;;;2.90;100.00;101883.84;5038346;28;20209;-73
2023/01/27 08:54:17;;;;;;;10.35;6.28;;;;;;;2.99;100.00;101892.91;5022591;28;20206;-72
2023/01/27 08:56:53;;;;;;;9.93;6.65;;;;;;;3.03;100.00;101887.16;5015021;28;20240;-71
2023/01/27 08:59:24;;;;;;;10.32;7.28;;;;;;;3.06;100.00;101894.91;5013595;28;20201;-72
2023/01/27 09:01:56;;;;;;;8.30;5.75;;;;;;;3.04;100.00;101888.88;5021502;28;20247;-71
2023/01/27 09:04:30;;;;;;;12.57;8.25;;;;;;;3.09;100.00;101895.66;5017974;28;20201;-72
2023/01/27 09:07:02;;;;;;;10.60;5.60;;;;;;;3.09;100.00;101896.50;5018810;28;20229;-71
2023/01/27 09:09:35;;;;;;;11.88;6.32;;;;;;;3.18;100.00;101900.22;5033409;28;20197;-70
2023/01/27 09:12:12;;;;;;;9.30;6.63;;;;;;;3.17;100.00;101902.03;5017911;28;20240;-71
2023/01/27 09:14:46;;;;;;;10.10;5.40;;;;;;;3.10;100.00;101910.72;5027911;28;20767;-72
2023/01/27 09:17:18;;;;;;;9.35;6.65;;;;;;;3.17;100.00;101910.06;5016313;28;20226;-72
2023/01/27 09:19:50;;;;;;;7.85;5.85;;;;;;;3.19;100.00;101907.28;5007130;28;20586;-72
2023/01/27 09:22:21;;;;;;;8.38;4.50;;;;;;;3.27;100.00;101915.47;5020792;28;20198;-70
2023/01/27 09:24:56;;;;;;;10.07;6.65;;;;;;;3.22;100.00;101917.69;5008448;28;20691;-71
2023/01/27 09:27:29;;;;;;;8.75;5.60;;;;;;;3.21;100.00;101926.69;5025738;28;20655;-69
2023/01/27 09:30:09;;;;;;;7.50;4.72;;;;;;;3.21;100.00;101921.34;5018857;28;20266;-71
2023/01/27 09:32:40;;;;;;;7.18;4.15;;;;;;;3.21;100.00;101919.53;4995736;28;20779;-70
2023/01/27 09:35:11;;;;;;;6.18;4.13;;;;;;;3.24;100.00;101921.09;4999459;28;20197;-71
2023/01/27 09:37:48;;;;;;;6.90;5.00;;;;;;;3.16;100.00;101924.41;5013045;28;20201;-70
2023/01/27 09:40:35;;;;;;;8.18;5.13;;;;;;;3.27;100.00;101923.50;5006339;28;20198;-72
2023/01/27 09:43:44;;;;;;;9.57;4.90;;;;;;;3.25;100.00;101922.78;5037378;28;20203;-71
2023/01/27 09:46:35;;;;;;;9.35;5.38;;;;;;;3.30;100.00;101936.63;5024542;28;20237;-71
2023/01/27 09:49:31;;;;;;;11.77;5.75;;;;;;;3.31;100.00;101938.31;5056292;28;20196;-73
2023/01/27 09:52:31;;;;;;;15.15;6.65;;;;;;;3.30;100.00;101931.25;5029310;28;20256;-70
2023/01/27 09:55:22;;;;;;;7.38;5.53;;;;;;;3.28;100.00;101943.94;5019903;28;20201;-71
2023/01/27 09:58:03;;;;;;;10.43;5.72;;;;;;;3.31;100.00;101933.81;5021800;28;20213;-72
2023/01/27 10:00:46;;;;;;;10.68;5.30;;;;;;;3.38;100.00;101942.19;5010923;28;20201;-72
2023/01/27 10:03:29;;;;;;;8.75;5.38;;;;;;;3.31;100.00;101943.66;5016087;28;20202;-73
2023/01/27 10:06:24;;;;;;;7.18;4.75;;;;;;;3.32;100.00;101934.66;5040921;28;20303;-72
2023/01/27 10:09:37;;;;;;;7.05;5.30;;;;;;;3.32;100.00;101948.03;5037171;28;20256;-72
2023/01/27 10:12:19;;;;;;;8.93;7.18;;;;;;;3.30;100.00;101941.97;4992284;28;20205;-72
2023/01/27 10:15:01;;;;;;;6.40;5.45;;;;;;;3.26;100.00;101952.09;5016493;28;20608;-72
2023/01/27 10:17:42;;;;;;;8.23;5.55;;;;;;;3.30;100.00;101941.97;5029746;28;20220;-70
2023/01/27 10:20:25;;;;;;;6.57;4.60;;;;;;;3.30;100.00;101944.63;5022491;28;20205;-72
2023/01/27 10:23:09;;;;;;;8.77;5.38;;;;;;;3.26;100.00;101945.88;5027618;28;20217;-72
2023/01/27 10:25:53;;;;;;;6.55;5.45;;;;;;;3.29;100.00;101946.47;5015650;28;20232;-71
2023/01/27 10:28:27;;;;;;;6.32;4.80;;;;;;;3.35;100.00;101950.44;5014854;28;20667;-71
2023/01/27 10:31:04;;;;;;;6.10;5.50;;;;;;;3.33;100.00;101953.28;5032796;28;20255;-72
2023/01/27 10:33:51;;;;;;;6.53;5.30;;;;;;;3.31;100.00;101954.38;5012769;28;20769;-71
2023/01/27 10:36:29;;;;;;;11.40;7.88;;;;;;;3.35;100.00;101955.81;5010549;28;20766;-71
2023/01/27 10:39:16;;;;;;;6.00;5.40;;;;;;;3.41;100.00;101952.63;5022931;28;20280;-71
2023/01/27 10:41:56;;;;;;;10.32;5.20;;;;;;;3.42;100.00;101957.84;5001470;28;20377;-70
2023/01/27 10:44:45;;;;;;;8.63;5.80;;;;;;;3.49;100.00;101952.81;5014824;28;20246;-70
2023/01/27 10:47:29;;;;;;;7.85;6.55;;;;;;;3.52;100.00;101949.03;5013146;28;20221;-71
2023/01/27 10:50:04;;;;;;;10.20;7.95;;;;;;;3.50;100.00;101960.72;4997069;28;20224;-70
2023/01/27 10:52:39;;;;;;;66.85;35.33;;;;;;;3.42;100.00;101951.66;5023101;28;20193;-71
2023/01/27 10:55:18;;;;;;;10.25;8.32;;;;;;;3.49;100.00;101955.47;5032625;28;20212;-70
2023/01/27 10:57:56;;;;;;;19.23;17.17;;;;;;;3.49;100.00;101952.81;5011190;28;20771;-71
2023/01/27 11:00:33;;;;;;;5.80;5.20;;;;;;;3.55;100.00;101951.44;5011791;28;20192;-71
2023/01/27 11:03:34;;;;;;;8.32;6.10;;;;;;;3.60;100.00;101955.41;5015048;28;20196;-72
2023/01/27 11:06:09;;;;;;;20.52;17.55;;;;;;;3.65;100.00;101963.91;5008104;28;20630;-71
2023/01/27 11:08:45;;;;;;;13.25;12.00;;;;;;;3.60;100.00;101957.25;4998315;28;20209;-71
2023/01/27 11:14:21;;;;;;;10.52;9.48;;;;;;;3.64;100.00;101959.53;5013230;28;20300;-72
2023/01/27 11:16:56;;;;;;;4.13;3.72;;;;;;;3.61;100.00;101956.28;5018447;28;20212;-73
2023/01/27 11:19:51;;;;;;;7.45;5.70;;;;;;;3.73;100.00;101960.56;5011923;28;20205;-72
2023/01/27 11:22:30;;;;;;;5.97;5.38;;;;;;;3.80;100.00;101954.56;5019494;28;20263;-72
2023/01/27 11:25:07;;;;;;;6.32;4.18;;;;;;;3.71;100.00;101950.00;5035416;28;20201;-73
2023/01/27 11:28:01;;;;;;;8.57;5.20;;;;;;;3.74;100.00;101956.91;4992439;28;20676;-70
2023/01/27 11:30:40;;;;;;;7.50;5.93;;;;;;;3.71;100.00;101958.03;4998191;28;20206;-71
2023/01/27 11:33:21;;;;;;;6.70;4.88;;;;;;;3.69;100.00;101953.78;5015408;28;20197;-71
2023/01/27 11:35:56;;;;;;;4.70;4.30;;;;;;;3.74;100.00;101947.06;5023504;28;20707;-72
2023/01/27 11:38:28;;;;;;;4.70;4.10;;;;;;;3.77;100.00;101945.94;5015514;28;20212;-71
2023/01/27 11:41:01;;;;;;;5.60;4.65;;;;;;;3.77;100.00;101946.81;5033232;28;20610;-74
2023/01/27 11:43:39;;;;;;;10.15;6.05;;;;;;;3.69;100.00;101949.28;5006155;28;20199;-72
2023/01/27 11:46:18;;;;;;;7.65;6.28;;;;;;;3.56;100.00;101948.63;5003935;28;20233;-72
2023/01/27 11:48:50;;;;;;;9.48;5.32;;;;;;;3.50;100.00;101946.47;5020305;28;20197;-71
2023/01/27 11:51:38;;;;;;;14.68;5.18;;;;;;;3.65;100.00;101942.50;5006303;28;20644;-70
2023/01/27 11:54:18;;;;;;;5.20;4.32;;;;;;;3.68;100.00;101952.09;5020048;28;20642;-71
2023/01/27 11:56:50;;;;;;;7.32;4.63;;;;;;;3.65;100.00;101950.53;5021120;28;20243;-71
2023/01/27 11:59:28;;;;;;;8.55;6.10;;;;;;;3.69;100.00;101954.63;4999389;28;20301;-71
2023/01/27 12:02:03;;;;;;;6.75;4.03;;;;;;;3.78;100.00;101942.28;5005035;28;20205;-71
2023/01/27 12:04:50;;;;;;;13.30;5.00;;;;;;;3.83;100.00;101948.06;5003285;28;20189;-71
2023/01/27 12:07:43;;;;;;;9.63;5.43;;;;;;;3.93;100.00;101952.50;5025509;28;20229;-72
2023/01/27 12:10:37;;;;;;;23.90;5.32;;;;;;;3.87;100.00;101952.22;5031100;28;20197;-70
2023/01/27 12:13:18;;;;;;;12.07;4.90;;;;;;;3.78;100.00;101959.19;5004768;28;20197;-73
2023/01/27 12:15:53;;;;;;;9.85;6.18;;;;;;;3.70;100.00;101959.00;5002916;28;20240;-71
2023/01/27 12:18:25;;;;;;;9.35;5.30;;;;;;;3.66;100.00;101954.91;5022662;28;20301;-71
2023/01/27 12:21:01;;;;;;;12.40;6.50;;;;;;;3.70;100.00;101950.97;5024654;28;20201;-71
2023/01/27 12:23:37;;;;;;;8.40;5.55;;;;;;;3.68;100.00;101950.25;5007297;28;20629;-70
2023/01/27 12:26:10;;;;;;;7.45;6.40;;;;;;;3.58;100.00;101952.03;5004999;28;20264;-70
2023/01/27 12:28:51;;;;;;;18.13;7.38;;;;;;;3.60;100.00;101949.22;4992773;28;20292;-70
2023/01/27 12:31:28;;;;;;;9.77;6.78;;;;;;;3.63;100.00;101949.78;5020878;28;20201;-72
2023/01/27 12:34:03;;;;;;;9.18;6.30;;;;;;;3.59;100.00;101959.06;4996803;28;20240;-70
2023/01/27 12:36:39;;;;;;;15.45;6.85;;;;;;;3.65;98.84;101952.34;5010801;28;20225;-73